Time;durP1;ratioP1;P1;durP2;ratioP2;P2;SDS_P1;SDS_P2;PMS_P1;PMS_P2;Temp;Humidity;BMP_temperature;BMP_pressure;BME280_temperature;BME280_humidity;BME280_pressure;Samples;Min_cycle;Max_cycle;Signal;HPM_P1;HPM_P2
2023/12/15 00:00:44;;;;;;;26.97;12.40;;;;;;;;;;5011428;28;20046;-95
2023/12/15 00:03:09;;;;;;;19.23;12.00;;;;;;;;;;5007267;28;20054;-96
2023/12/15 00:05:35;;;;;;;25.30;12.03;;;;;;;;;;5008548;28;20462;-96
2023/12/15 00:08:01;;;;;;;25.58;12.50;;;;;;;;;;4992653;28;20498;-94
2023/12/15 00:10:26;;;;;;;21.87;12.40;;;;;;;;;;5043444;28;20097;-95
2023/12/15 00:12:51;;;;;;;19.80;11.77;;;;;;;;;;5032621;28;20017;-94
2023/12/15 00:15:16;;;;;;;24.07;11.73;;;;;;;;;;5050574;28;20120;-95
2023/12/15 00:17:42;;;;;;;25.70;13.00;;;;;;;;;;5050412;28;20894;-95
2023/12/15 00:20:07;;;;;;;26.67;12.03;;;;;;;;;;5051136;28;20055;-95
2023/12/15 00:22:55;;;;;;;32.70;14.87;;;;;;;;;;5052650;28;20069;-96
2023/12/15 00:25:20;;;;;;;31.83;14.02;;;;;;;;;;5035795;28;20052;-96
2023/12/15 00:27:45;;;;;;;27.43;13.27;;;;;;;;;;5050876;28;20013;-96
2023/12/15 00:30:11;;;;;;;27.87;14.40;;;;;;;;;;5054582;28;20052;-94
2023/12/15 00:32:36;;;;;;;26.50;13.68;;;;;;;;;;5055218;28;20025;-95
2023/12/15 00:35:01;;;;;;;27.10;15.50;;;;;;;;;;5050332;28;20043;-95
2023/12/15 00:37:27;;;;;;;33.87;14.87;;;;;;;;;;5058781;28;20033;-95
2023/12/15 00:39:52;;;;;;;31.92;14.52;;;;;;;;;;5051504;28;20519;-95
2023/12/15 00:42:17;;;;;;;31.90;13.73;;;;;;;;;;5053729;28;20021;-95
2023/12/15 00:44:43;;;;;;;31.97;14.77;;;;;;;;;;5037831;28;20017;-95
2023/12/15 00:47:08;;;;;;;30.23;14.30;;;;;;;;;;5053642;28;20045;-96
2023/12/15 00:49:33;;;;;;;34.43;14.73;;;;;;;;;;5028643;28;20034;-96
2023/12/15 00:51:58;;;;;;;28.83;15.63;;;;;;;;;;5039253;28;20014;-95
2023/12/15 00:54:23;;;;;;;32.10;15.83;;;;;;;;;;5036350;28;20010;-95
2023/12/15 00:56:49;;;;;;;35.73;16.03;;;;;;;;;;5036110;28;20024;-96
2023/12/15 00:59:14;;;;;;;34.60;16.67;;;;;;;;;;5036094;28;20021;-96
2023/12/15 01:01:39;;;;;;;35.63;15.90;;;;;;;;;;5047928;28;20026;-95
2023/12/15 01:04:04;;;;;;;34.83;15.80;;;;;;;;;;5049537;28;20275;-96
2023/12/15 01:06:30;;;;;;;40.40;17.03;;;;;;;;;;5055067;28;20021;-96
2023/12/15 01:08:55;;;;;;;37.63;16.30;;;;;;;;;;5052972;28;20017;-95
2023/12/15 01:11:21;;;;;;;37.07;17.07;;;;;;;;;;5036175;28;20029;-95
2023/12/15 01:13:46;;;;;;;32.70;16.43;;;;;;;;;;5053620;28;20065;-96
2023/12/15 01:16:11;;;;;;;33.87;16.13;;;;;;;;;;5057310;28;20032;-96
2023/12/15 01:18:36;;;;;;;40.90;17.67;;;;;;;;;;5037237;28;20002;-95
2023/12/15 01:21:02;;;;;;;41.80;17.57;;;;;;;;;;5037599;28;20021;-95
2023/12/15 01:23:27;;;;;;;36.40;16.00;;;;;;;;;;5057609;28;20359;-95
2023/12/15 01:25:52;;;;;;;44.63;18.23;;;;;;;;;;5057631;28;20139;-96
2023/12/15 01:28:17;;;;;;;41.77;17.03;;;;;;;;;;5040608;28;20052;-95
2023/12/15 01:30:42;;;;;;;42.43;18.27;;;;;;;;;;5057107;28;20040;-95
2023/12/15 01:33:08;;;;;;;39.87;17.37;;;;;;;;;;5057858;28;20001;-95
2023/12/15 01:35:33;;;;;;;37.47;17.17;;;;;;;;;;5057589;28;20002;-95
2023/12/15 01:37:58;;;;;;;38.07;17.20;;;;;;;;;;5056716;28;20009;-96
2023/12/15 01:40:23;;;;;;;37.17;16.20;;;;;;;;;;5050285;28;20032;-95
2023/12/15 01:42:49;;;;;;;39.93;17.63;;;;;;;;;;5057107;28;20005;-95
2023/12/15 01:45:14;;;;;;;37.43;16.53;;;;;;;;;;5057236;28;20025;-95
2023/12/15 01:47:39;;;;;;;40.40;17.42;;;;;;;;;;5040561;28;20076;-95
2023/12/15 01:50:06;;;;;;;35.27;17.20;;;;;;;;;;5057299;28;20055;-95
2023/12/15 01:52:33;;;;;;;37.72;17.90;;;;;;;;;;5057569;28;20022;-95
2023/12/15 01:54:58;;;;;;;39.53;17.43;;;;;;;;;;5042302;28;20021;-95
2023/12/15 01:57:23;;;;;;;43.07;17.57;;;;;;;;;;5048376;28;20025;-96
2023/12/15 01:59:49;;;;;;;41.23;17.30;;;;;;;;;;5055251;28;20014;-96
2023/12/15 02:02:14;;;;;;;31.00;15.90;;;;;;;;;;5056411;28;20543;-96
2023/12/15 02:04:40;;;;;;;37.23;15.93;;;;;;;;;;5056163;28;20044;-96
2023/12/15 02:07:05;;;;;;;37.97;15.50;;;;;;;;;;5056376;28;20141;-95
2023/12/15 02:09:30;;;;;;;35.17;16.10;;;;;;;;;;5055207;28;20013;-96
2023/12/15 02:11:55;;;;;;;33.60;16.15;;;;;;;;;;5055706;28;20013;-94
2023/12/15 02:14:21;;;;;;;36.67;15.97;;;;;;;;;;5055085;28;20013;-95
2023/12/15 02:16:46;;;;;;;32.33;15.67;;;;;;;;;;5056121;28;20009;-95
2023/12/15 02:19:11;;;;;;;37.23;15.63;;;;;;;;;;5055523;28;20021;-95
2023/12/15 02:21:36;;;;;;;32.53;15.67;;;;;;;;;;5054848;28;20025;-95
2023/12/15 02:24:01;;;;;;;32.33;15.10;;;;;;;;;;5055545;28;20002;-95
2023/12/15 02:26:27;;;;;;;33.10;15.67;;;;;;;;;;5055572;28;20041;-95
2023/12/15 02:28:52;;;;;;;35.77;15.60;;;;;;;;;;5055183;28;20221;-94
2023/12/15 02:31:19;;;;;;;35.27;15.60;;;;;;;;;;5038409;28;20018;-94
2023/12/15 02:33:44;;;;;;;39.47;15.32;;;;;;;;;;5038337;28;20010;-94
2023/12/15 02:36:16;;;;;;;33.93;15.53;;;;;;;;;;5038690;28;20033;-94
2023/12/15 02:38:42;;;;;;;35.03;17.45;;;;;;;;;;5055269;28;20032;-95
2023/12/15 02:41:09;;;;;;;33.23;16.23;;;;;;;;;;5045815;28;20025;-94
2023/12/15 02:43:35;;;;;;;38.63;16.52;;;;;;;;;;5054753;28;20035;-95
2023/12/15 02:46:00;;;;;;;33.90;16.13;;;;;;;;;;5055727;28;20017;-94
2023/12/15 02:48:25;;;;;;;36.43;17.47;;;;;;;;;;5055109;28;20009;-95
2023/12/15 02:50:50;;;;;;;36.77;16.20;;;;;;;;;;5054610;28;20033;-94
2023/12/15 02:53:15;;;;;;;38.27;15.93;;;;;;;;;;5034299;28;20089;-95
2023/12/15 02:55:41;;;;;;;40.40;16.07;;;;;;;;;;5049974;28;20025;-96
2023/12/15 02:58:06;;;;;;;36.07;15.73;;;;;;;;;;5047193;28;20041;-95
2023/12/15 03:00:31;;;;;;;40.33;16.77;;;;;;;;;;5045023;28;20017;-94
2023/12/15 03:02:56;;;;;;;44.50;17.23;;;;;;;;;;5053499;28;20006;-95
2023/12/15 03:05:22;;;;;;;40.20;16.87;;;;;;;;;;5054255;28;20017;-94
2023/12/15 03:07:47;;;;;;;43.33;16.83;;;;;;;;;;5040812;28;20017;-96
2023/12/15 03:10:12;;;;;;;47.33;17.50;;;;;;;;;;5035721;28;20037;-94
2023/12/15 03:12:37;;;;;;;39.20;17.57;;;;;;;;;;5035396;28;20021;-93
2023/12/15 03:15:02;;;;;;;49.27;17.60;;;;;;;;;;5030943;28;20028;-92
2023/12/15 03:17:30;;;;;;;43.03;17.83;;;;;;;;;;5033253;28;20033;-93
2023/12/15 03:19:55;;;;;;;46.85;16.95;;;;;;;;;;5029396;28;20034;-93
2023/12/15 03:22:20;;;;;;;45.57;18.13;;;;;;;;;;5023547;28;20021;-93
2023/12/15 03:24:45;;;;;;;43.20;17.13;;;;;;;;;;5036302;28;20362;-93
2023/12/15 03:27:10;;;;;;;40.57;17.77;;;;;;;;;;5015112;28;20013;-92
2023/12/15 03:29:36;;;;;;;38.90;16.53;;;;;;;;;;5028414;28;20029;-92
2023/12/15 03:32:01;;;;;;;45.97;17.97;;;;;;;;;;5036730;28;20063;-92
2023/12/15 03:34:26;;;;;;;53.03;18.77;;;;;;;;;;5034991;28;20021;-92
2023/12/15 03:36:51;;;;;;;52.07;19.10;;;;;;;;;;5034608;28;20044;-93
2023/12/15 03:39:16;;;;;;;53.80;18.90;;;;;;;;;;5034828;28;20041;-92
2023/12/15 03:41:41;;;;;;;47.60;17.93;;;;;;;;;;5034341;28;20045;-92
2023/12/15 03:44:07;;;;;;;48.77;18.13;;;;;;;;;;5041019;28;20039;-94
2023/12/15 03:46:32;;;;;;;48.90;18.33;;;;;;;;;;5025498;28;20116;-92
2023/12/15 03:48:57;;;;;;;56.43;19.53;;;;;;;;;;5020464;28;20017;-93
2023/12/15 03:51:22;;;;;;;49.70;18.40;;;;;;;;;;5037691;28;20109;-94
2023/12/15 03:53:48;;;;;;;52.47;19.17;;;;;;;;;;5037706;28;20032;-93
2023/12/15 03:56:13;;;;;;;52.77;18.20;;;;;;;;;;5032474;28;20466;-94
2023/12/15 03:58:38;;;;;;;54.73;18.53;;;;;;;;;;5029301;28;20035;-93
2023/12/15 04:01:04;;;;;;;48.97;18.30;;;;;;;;;;5023667;28;20575;-92
2023/12/15 04:03:30;;;;;;;53.30;18.60;;;;;;;;;;5036425;28;20276;-92
2023/12/15 04:05:55;;;;;;;49.33;18.47;;;;;;;;;;5036783;28;20024;-92
2023/12/15 04:08:20;;;;;;;57.60;19.53;;;;;;;;;;5018335;28;20461;-93
2023/12/15 04:10:45;;;;;;;60.63;20.00;;;;;;;;;;5036086;28;20810;-93
2023/12/15 04:13:10;;;;;;;54.10;19.57;;;;;;;;;;5035517;28;20022;-92
2023/12/15 04:15:36;;;;;;;60.07;19.97;;;;;;;;;;5037198;28;20095;-92
2023/12/15 04:18:04;;;;;;;68.00;20.77;;;;;;;;;;5018584;28;20013;-92
2023/12/15 04:20:29;;;;;;;67.23;20.37;;;;;;;;;;5036638;28;20014;-91
2023/12/15 04:22:55;;;;;;;66.83;22.20;;;;;;;;;;5035359;28;20287;-92
2023/12/15 04:25:20;;;;;;;65.90;21.17;;;;;;;;;;5019583;28;20408;-92
2023/12/15 04:27:46;;;;;;;64.47;22.20;;;;;;;;;;5019061;28;20132;-91
2023/12/15 04:30:12;;;;;;;68.72;21.55;;;;;;;;;;5049187;28;20041;-92
2023/12/15 04:32:38;;;;;;;78.80;22.95;;;;;;;;;;5032104;28;20074;-91
2023/12/15 04:35:03;;;;;;;71.50;22.00;;;;;;;;;;5031121;28;20605;-92
2023/12/15 04:37:28;;;;;;;69.00;20.40;;;;;;;;;;5037857;28;20024;-91
2023/12/15 04:39:53;;;;;;;65.67;20.83;;;;;;;;;;5015538;28;20030;-94
2023/12/15 04:42:19;;;;;;;79.70;22.23;;;;;;;;;;5025749;28;20021;-92
2023/12/15 04:44:44;;;;;;;68.93;22.20;;;;;;;;;;5029458;28;20033;-91
2023/12/15 04:47:09;;;;;;;75.57;23.47;;;;;;;;;;5029327;28;20022;-92
2023/12/15 04:49:34;;;;;;;67.33;21.93;;;;;;;;;;5036034;28;20017;-93
2023/12/15 04:52:00;;;;;;;83.87;24.47;;;;;;;;;;5036526;28;20637;-90
2023/12/15 04:54:25;;;;;;;74.22;22.33;;;;;;;;;;5041996;28;20024;-91
2023/12/15 04:56:52;;;;;;;80.40;23.77;;;;;;;;;;5039869;28;20048;-91
2023/12/15 04:59:17;;;;;;;72.63;22.90;;;;;;;;;;5018392;28;20017;-91
2023/12/15 05:01:43;;;;;;;73.78;21.50;;;;;;;;;;5034519;28;20389;-90
2023/12/15 05:04:08;;;;;;;75.78;22.83;;;;;;;;;;5034867;28;20461;-91
2023/12/15 05:06:34;;;;;;;76.93;22.37;;;;;;;;;;5015836;28;20452;-91
2023/12/15 05:08:59;;;;;;;84.55;23.05;;;;;;;;;;5015855;28;20021;-91
2023/12/15 05:11:26;;;;;;;83.43;24.93;;;;;;;;;;5034253;28;20031;-91
2023/12/15 05:13:51;;;;;;;90.10;24.67;;;;;;;;;;5015579;28;20124;-91
2023/12/15 05:16:16;;;;;;;82.00;24.07;;;;;;;;;;5034583;28;20037;-91
2023/12/15 05:18:42;;;;;;;78.20;23.60;;;;;;;;;;5034944;28;20483;-91
2023/12/15 05:21:07;;;;;;;79.13;23.93;;;;;;;;;;5034160;28;20659;-91
2023/12/15 05:23:32;;;;;;;87.67;25.83;;;;;;;;;;5032449;28;20440;-91
2023/12/15 05:25:57;;;;;;;78.33;24.33;;;;;;;;;;5034800;28;20048;-91
2023/12/15 05:28:23;;;;;;;83.90;23.73;;;;;;;;;;5031987;28;20100;-90
2023/12/15 05:30:48;;;;;;;92.03;25.83;;;;;;;;;;5033272;28;20064;-91
2023/12/15 05:33:13;;;;;;;87.47;25.33;;;;;;;;;;5033184;28;20017;-91
2023/12/15 05:35:39;;;;;;;77.00;23.70;;;;;;;;;;5034029;28;20021;-91
2023/12/15 05:38:04;;;;;;;92.25;25.10;;;;;;;;;;5014704;28;20044;-91
2023/12/15 05:40:29;;;;;;;89.67;25.00;;;;;;;;;;5014560;28;20685;-91
2023/12/15 05:42:54;;;;;;;87.50;26.33;;;;;;;;;;5003339;28;20024;-94
2023/12/15 05:45:20;;;;;;;85.30;24.00;;;;;;;;;;5036722;28;20013;-93
2023/12/15 05:47:45;;;;;;;94.47;25.63;;;;;;;;;;5018166;28;20017;-94
2023/12/15 05:50:11;;;;;;;97.97;25.77;;;;;;;;;;5036654;28;20338;-93
2023/12/15 05:52:36;;;;;;;89.70;26.50;;;;;;;;;;5035193;28;20032;-93
2023/12/15 05:55:01;;;;;;;92.07;25.70;;;;;;;;;;5017908;28;20508;-94
2023/12/15 05:57:27;;;;;;;102.03;27.50;;;;;;;;;;5017759;28;20012;-93
2023/12/15 05:59:52;;;;;;;94.27;26.40;;;;;;;;;;5035194;28;20812;-92
2023/12/15 06:02:17;;;;;;;103.90;26.90;;;;;;;;;;5036100;28;20031;-94
2023/12/15 06:04:42;;;;;;;104.32;29.20;;;;;;;;;;5035873;28;20021;-93
2023/12/15 06:07:09;;;;;;;95.53;28.30;;;;;;;;;;5036042;28;20025;-93
2023/12/15 06:09:35;;;;;;;100.18;28.33;;;;;;;;;;5017466;28;20117;-93
2023/12/15 06:12:00;;;;;;;101.47;27.27;;;;;;;;;;5036276;28;20028;-91
2023/12/15 06:14:26;;;;;;;105.33;27.13;;;;;;;;;;5018043;28;20272;-91
2023/12/15 06:16:51;;;;;;;105.33;28.73;;;;;;;;;;5019465;28;20021;-93
2023/12/15 06:19:16;;;;;;;106.73;29.00;;;;;;;;;;5038705;28;20032;-93
2023/12/15 06:21:42;;;;;;;110.50;28.30;;;;;;;;;;5035226;28;20013;-92
2023/12/15 06:24:07;;;;;;;99.40;27.80;;;;;;;;;;5020227;28;20071;-94
2023/12/15 06:26:32;;;;;;;98.93;28.10;;;;;;;;;;5042695;28;20397;-94
2023/12/15 06:28:57;;;;;;;96.93;28.03;;;;;;;;;;5040736;28;20025;-94
2023/12/15 06:31:25;;;;;;;99.60;28.73;;;;;;;;;;5034941;28;20080;-93
2023/12/15 06:33:50;;;;;;;102.57;27.80;;;;;;;;;;5024628;28;20022;-95
2023/12/15 06:36:15;;;;;;;102.23;29.27;;;;;;;;;;5011097;28;20026;-96
2023/12/15 06:38:45;;;;;;;101.20;28.60;;;;;;;;;;5031381;28;20048;-94
2023/12/15 06:41:10;;;;;;;96.38;27.33;;;;;;;;;;5031992;28;20021;-95
2023/12/15 06:43:45;;;;;;;99.22;29.70;;;;;;;;;;5032117;28;20507;-96
2023/12/15 06:46:11;;;;;;;107.55;28.40;;;;;;;;;;5032049;28;20022;-96
2023/12/15 06:48:36;;;;;;;105.40;30.03;;;;;;;;;;5015694;28;20048;-94
2023/12/15 06:51:02;;;;;;;108.57;29.30;;;;;;;;;;5034674;28;20033;-95
2023/12/15 06:53:27;;;;;;;107.70;29.27;;;;;;;;;;5033764;28;20017;-95
2023/12/15 06:55:52;;;;;;;99.53;29.13;;;;;;;;;;5014779;28;20578;-95
2023/12/15 06:58:18;;;;;;;109.10;28.80;;;;;;;;;;5032505;28;20053;-95
2023/12/15 07:00:43;;;;;;;100.87;28.57;;;;;;;;;;5027039;28;20079;-94
2023/12/15 07:03:08;;;;;;;113.63;30.73;;;;;;;;;;5016623;28;20026;-94
2023/12/15 07:05:34;;;;;;;104.83;30.90;;;;;;;;;;5013222;28;20084;-96
2023/12/15 07:08:00;;;;;;;114.43;30.27;;;;;;;;;;5000149;28;20028;-96
2023/12/15 07:10:25;;;;;;;110.53;29.42;;;;;;;;;;5032968;28;20085;-95
2023/12/15 07:12:50;;;;;;;113.97;31.60;;;;;;;;;;5034259;28;20031;-95
2023/12/15 07:15:16;;;;;;;101.63;29.33;;;;;;;;;;5025569;28;20025;-95
2023/12/15 07:17:41;;;;;;;107.10;30.13;;;;;;;;;;5015421;28;20006;-95
2023/12/15 07:20:08;;;;;;;105.50;29.97;;;;;;;;;;5016839;28;20219;-94
2023/12/15 07:22:33;;;;;;;117.10;32.53;;;;;;;;;;5027580;28;20030;-94
2023/12/15 07:24:58;;;;;;;106.53;30.03;;;;;;;;;;5017566;28;20029;-94
2023/12/15 07:27:23;;;;;;;115.33;30.97;;;;;;;;;;5032900;28;20182;-92
2023/12/15 07:29:49;;;;;;;111.03;31.63;;;;;;;;;;5024414;28;20033;-94
2023/12/15 07:32:14;;;;;;;105.57;30.40;;;;;;;;;;5021613;28;20465;-93
2023/12/15 07:34:39;;;;;;;110.73;31.20;;;;;;;;;;5025434;28;20428;-93
2023/12/15 07:37:04;;;;;;;106.00;30.10;;;;;;;;;;5036913;28;20108;-93
2023/12/15 07:39:29;;;;;;;108.70;31.33;;;;;;;;;;5035101;28;20369;-93
2023/12/15 07:41:55;;;;;;;109.57;32.07;;;;;;;;;;5002849;28;20640;-92
2023/12/15 07:44:20;;;;;;;109.87;30.00;;;;;;;;;;5001414;28;20022;-92
2023/12/15 07:46:46;;;;;;;104.27;30.30;;;;;;;;;;5013336;28;20017;-93
2023/12/15 07:49:11;;;;;;;116.43;32.20;;;;;;;;;;5031130;28;20071;-93
2023/12/15 07:51:36;;;;;;;105.27;29.57;;;;;;;;;;5026203;28;20022;-92
2023/12/15 07:54:01;;;;;;;113.82;30.65;;;;;;;;;;5029034;28;20022;-92
2023/12/15 07:56:27;;;;;;;103.07;29.37;;;;;;;;;;5022146;28;20018;-92
2023/12/15 07:58:54;;;;;;;98.38;29.23;;;;;;;;;;5038502;28;20504;-92
2023/12/15 08:01:19;;;;;;;115.33;31.47;;;;;;;;;;5021365;28;20040;-92
2023/12/15 08:03:45;;;;;;;105.13;28.73;;;;;;;;;;5042469;28;20033;-93
2023/12/15 08:06:11;;;;;;;101.53;28.53;;;;;;;;;;5036586;28;20131;-94
2023/12/15 08:08:37;;;;;;;107.10;30.40;;;;;;;;;;5037460;28;20076;-93
2023/12/15 08:11:03;;;;;;;105.63;29.63;;;;;;;;;;5038146;28;20025;-92
2023/12/15 08:13:28;;;;;;;109.60;29.95;;;;;;;;;;5033031;28;20087;-90
2023/12/15 08:15:53;;;;;;;108.97;30.20;;;;;;;;;;5029409;28;20082;-92
2023/12/15 08:18:19;;;;;;;108.83;30.33;;;;;;;;;;5007389;28;20486;-92
2023/12/15 08:20:45;;;;;;;114.13;29.77;;;;;;;;;;5013886;28;20084;-91
2023/12/15 08:23:10;;;;;;;116.53;29.65;;;;;;;;;;5032216;28;20067;-92
2023/12/15 08:25:35;;;;;;;105.30;29.57;;;;;;;;;;5047436;28;20013;-93
2023/12/15 08:28:02;;;;;;;107.83;29.53;;;;;;;;;;5025220;28;20105;-92
2023/12/15 08:30:27;;;;;;;105.40;31.52;;;;;;;;;;5032439;28;20033;-93
2023/12/15 08:32:52;;;;;;;111.13;31.07;;;;;;;;;;5033599;28;20025;-92
2023/12/15 08:35:18;;;;;;;102.93;29.47;;;;;;;;;;5032192;28;20022;-91
2023/12/15 08:37:43;;;;;;;97.80;28.93;;;;;;;;;;5029541;28;20017;-91
2023/12/15 08:40:09;;;;;;;102.30;28.33;;;;;;;;;;5023660;28;20025;-92
2023/12/15 08:42:34;;;;;;;105.80;28.90;;;;;;;;;;5013224;28;20079;-92
2023/12/15 08:44:59;;;;;;;97.17;28.53;;;;;;;;;;5032489;28;20029;-91
2023/12/15 08:47:24;;;;;;;104.70;28.83;;;;;;;;;;5014086;28;20124;-91
2023/12/15 08:49:50;;;;;;;97.13;29.30;;;;;;;;;;5031537;28;20025;-91
2023/12/15 08:52:15;;;;;;;99.47;30.30;;;;;;;;;;5030318;28;20619;-90
2023/12/15 08:54:41;;;;;;;97.83;29.53;;;;;;;;;;5030046;28;20040;-90
2023/12/15 08:57:06;;;;;;;91.68;28.10;;;;;;;;;;5030317;28;20146;-93
2023/12/15 08:59:31;;;;;;;95.97;28.67;;;;;;;;;;5034805;28;20025;-92
2023/12/15 09:02:03;;;;;;;89.87;28.23;;;;;;;;;;5031861;28;20456;-96
2023/12/15 09:04:28;;;;;;;90.80;29.52;;;;;;;;;;5013599;28;20116;-91
2023/12/15 09:06:53;;;;;;;91.93;28.43;;;;;;;;;;5018991;28;20092;-92
2023/12/15 09:09:21;;;;;;;98.57;28.67;;;;;;;;;;5031245;28;20362;-93
2023/12/15 09:11:46;;;;;;;89.40;27.35;;;;;;;;;;5015434;28;20105;-92
2023/12/15 09:14:12;;;;;;;80.60;26.50;;;;;;;;;;5015127;28;20049;-90
2023/12/15 09:16:37;;;;;;;80.70;25.77;;;;;;;;;;5031550;28;20053;-87
2023/12/15 09:19:02;;;;;;;86.33;27.20;;;;;;;;;;5034391;28;20044;-89
2023/12/15 09:21:27;;;;;;;85.57;26.23;;;;;;;;;;5015170;28;20025;-94
2023/12/15 09:23:56;;;;;;;83.07;26.53;;;;;;;;;;5033870;28;20036;-96
2023/12/15 09:26:21;;;;;;;83.18;25.45;;;;;;;;;;5014499;28;20025;-93
2023/12/15 09:28:46;;;;;;;78.40;27.83;;;;;;;;;;5033340;28;20561;-93
2023/12/15 09:31:12;;;;;;;83.23;26.73;;;;;;;;;;5032693;28;20034;-89
2023/12/15 09:33:37;;;;;;;85.47;25.55;;;;;;;;;;5013891;28;20119;-92
2023/12/15 09:36:03;;;;;;;83.70;26.80;;;;;;;;;;5031722;28;20021;-92
2023/12/15 09:38:28;;;;;;;81.13;26.13;;;;;;;;;;5015862;28;20033;-94
2023/12/15 09:40:56;;;;;;;76.73;26.50;;;;;;;;;;5033058;28;20029;-94
2023/12/15 09:43:30;;;;;;;77.60;25.67;;;;;;;;;;5132508;23;20129;-91
2023/12/15 09:45:59;;;;;;;77.13;26.45;;;;;;;;;;5029383;28;20022;-91
2023/12/15 09:48:31;;;;;;;72.00;24.83;;;;;;;;;;5038219;28;20029;-94
2023/12/15 09:51:10;;;;;;;70.13;23.95;;;;;;;;;;5036208;28;20132;-92
2023/12/15 09:53:36;;;;;;;68.87;23.93;;;;;;;;;;5012583;28;20030;-93
2023/12/15 09:56:02;;;;;;;66.07;21.65;;;;;;;;;;5015445;28;20499;-94
2023/12/15 09:58:27;;;;;;;67.35;23.67;;;;;;;;;;5016220;28;20026;-95
2023/12/15 10:01:01;;;;;;;59.97;22.33;;;;;;;;;;5012152;28;20060;-93
2023/12/15 10:03:27;;;;;;;63.35;21.85;;;;;;;;;;5016180;28;20658;-94
2023/12/15 10:05:52;;;;;;;60.33;21.40;;;;;;;;;;5015205;28;20026;-93
2023/12/15 10:08:22;;;;;;;59.83;21.93;;;;;;;;;;5026225;28;20037;-91
2023/12/15 10:10:48;;;;;;;61.78;22.02;;;;;;;;;;5025703;28;20048;-91
2023/12/15 10:13:15;;;;;;;60.83;21.13;;;;;;;;;;5010751;28;20120;-93
2023/12/15 10:19:28;;;;;;;55.67;19.03;;;;;;;;;;5011978;28;20053;-92
2023/12/15 10:24:29;;;;;;;57.50;20.42;;;;;;;;;;5049493;23;20571;-92
2023/12/15 10:26:54;;;;;;;49.93;19.37;;;;;;;;;;5014102;28;20021;-91
2023/12/15 10:29:20;;;;;;;48.37;19.93;;;;;;;;;;5024965;28;20536;-94
2023/12/15 10:31:45;;;;;;;58.95;20.35;;;;;;;;;;5034234;28;20060;-94
2023/12/15 10:34:10;;;;;;;57.93;19.03;;;;;;;;;;5027448;28;20014;-95
2023/12/15 10:36:40;;;;;;;53.57;19.20;;;;;;;;;;5019043;28;20026;-92
2023/12/15 10:39:06;;;;;;;53.20;20.38;;;;;;;;;;5022551;28;20032;-93
2023/12/15 10:41:34;;;;;;;51.45;19.35;;;;;;;;;;5004730;28;20045;-91
2023/12/15 10:44:06;;;;;;;52.72;19.75;;;;;;;;;;5018190;28;20014;-91
2023/12/15 10:46:31;;;;;;;49.23;18.50;;;;;;;;;;5024781;28;20088;-93
2023/12/15 10:49:18;;;;;;;45.17;17.37;;;;;;;;;;5018756;28;20281;-94
2023/12/15 10:51:43;;;;;;;47.23;18.53;;;;;;;;;;5117099;22;20059;-91
2023/12/15 10:54:09;;;;;;;48.43;18.37;;;;;;;;;;5054564;28;20775;-92
2023/12/15 10:56:39;;;;;;;55.37;19.17;;;;;;;;;;5046830;28;20091;-92
2023/12/15 10:59:05;;;;;;;51.83;17.75;;;;;;;;;;5050550;28;20499;-93
2023/12/15 11:01:31;;;;;;;47.17;17.40;;;;;;;;;;5237061;22;20019;-91
2023/12/15 11:03:57;;;;;;;44.88;17.58;;;;;;;;;;5031332;28;20144;-92
2023/12/15 11:06:27;;;;;;;44.50;17.30;;;;;;;;;;5033388;28;20048;-93
2023/12/15 11:09:08;;;;;;;47.00;17.30;;;;;;;;;;5040562;28;20022;-90
2023/12/15 11:11:33;;;;;;;44.42;17.02;;;;;;;;;;5047099;28;20033;-92
2023/12/15 11:14:07;;;;;;;41.50;17.13;;;;;;;;;;5041993;28;20013;-91
2023/12/15 11:16:44;;;;;;;41.60;16.98;;;;;;;;;;5029966;28;20032;-91
2023/12/15 11:19:19;;;;;;;40.03;16.30;;;;;;;;;;5022267;28;20017;-91
2023/12/15 11:21:44;;;;;;;46.25;17.52;;;;;;;;;;5031002;28;20021;-93
2023/12/15 11:24:09;;;;;;;46.23;17.10;;;;;;;;;;5031321;28;20036;-92
2023/12/15 11:26:41;;;;;;;46.40;17.00;;;;;;;;;;5013193;28;20045;-91
2023/12/15 11:29:06;;;;;;;48.35;17.08;;;;;;;;;;5007444;28;20009;-92
2023/12/15 11:34:42;;;;;;;43.83;15.98;;;;;;;;;;5057570;28;20137;-92
2023/12/15 11:37:08;;;;;;;38.53;14.27;;;;;;;;;;5053313;28;20040;-93
2023/12/15 11:39:36;;;;;;;40.30;15.20;;;;;;;;;;5040139;28;20267;-92
2023/12/15 11:42:01;;;;;;;39.47;15.25;;;;;;;;;;5052885;28;20014;-91
2023/12/15 11:44:27;;;;;;;34.05;14.25;;;;;;;;;;5023146;28;20037;-91
2023/12/15 11:46:53;;;;;;;39.28;13.18;;;;;;;;;;5039328;28;20083;-92
2023/12/15 11:49:22;;;;;;;41.23;12.87;;;;;;;;;;5039094;28;20494;-92
2023/12/15 11:51:47;;;;;;;37.67;12.77;;;;;;;;;;5031566;28;20017;-91
2023/12/15 11:54:12;;;;;;;30.90;12.63;;;;;;;;;;5030581;28;20022;-92
2023/12/15 11:56:38;;;;;;;30.67;12.30;;;;;;;;;;5029689;28;20040;-91
2023/12/15 11:59:03;;;;;;;27.80;11.77;;;;;;;;;;5029296;28;20014;-92
2023/12/15 12:01:35;;;;;;;34.53;12.27;;;;;;;;;;5030287;28;20022;-92
2023/12/15 12:04:00;;;;;;;31.65;12.02;;;;;;;;;;5011850;28;20563;-91
2023/12/15 12:06:25;;;;;;;27.63;10.77;;;;;;;;;;5031746;28;20093;-90
2023/12/15 12:08:51;;;;;;;30.43;10.37;;;;;;;;;;5033738;28;20029;-91
2023/12/15 12:11:16;;;;;;;23.45;10.23;;;;;;;;;;5033354;28;20551;-91
2023/12/15 12:13:42;;;;;;;25.43;10.40;;;;;;;;;;5034022;28;20013;-91
2023/12/15 12:16:08;;;;;;;22.63;9.27;;;;;;;;;;5032992;28;20021;-91
2023/12/15 12:18:33;;;;;;;25.77;8.82;;;;;;;;;;5032918;28;20013;-93
2023/12/15 12:21:04;;;;;;;22.70;9.33;;;;;;;;;;5035701;28;20025;-91
2023/12/15 12:23:30;;;;;;;26.10;9.07;;;;;;;;;;5039998;28;20033;-91
2023/12/15 12:25:56;;;;;;;20.90;8.55;;;;;;;;;;5032492;28;20032;-92
2023/12/15 12:28:22;;;;;;;17.97;7.40;;;;;;;;;;5034148;28;20099;-91
2023/12/15 12:30:48;;;;;;;22.83;7.80;;;;;;;;;;5033341;28;20069;-93
2023/12/15 12:33:14;;;;;;;20.40;7.70;;;;;;;;;;5016601;28;20116;-92
2023/12/15 12:35:39;;;;;;;18.57;7.90;;;;;;;;;;5015835;28;20428;-92
2023/12/15 12:38:04;;;;;;;19.57;8.37;;;;;;;;;;5016738;28;20624;-92
2023/12/15 12:40:29;;;;;;;19.80;7.43;;;;;;;;;;5033761;28;20022;-92
2023/12/15 12:42:57;;;;;;;21.00;8.30;;;;;;;;;;5015583;28;20017;-92
2023/12/15 12:45:22;;;;;;;21.55;7.65;;;;;;;;;;5014539;28;20096;-92
2023/12/15 12:47:49;;;;;;;19.77;7.40;;;;;;;;;;5024803;28;20519;-93
2023/12/15 12:50:15;;;;;;;19.45;6.90;;;;;;;;;;5015686;28;20087;-90
2023/12/15 12:52:40;;;;;;;21.27;7.00;;;;;;;;;;5022753;28;20022;-92
2023/12/15 12:55:06;;;;;;;18.67;7.07;;;;;;;;;;5017042;28;20021;-92
2023/12/15 12:57:32;;;;;;;21.48;7.00;;;;;;;;;;5034239;28;20036;-93
2023/12/15 12:59:57;;;;;;;18.27;6.23;;;;;;;;;;5014183;28;20025;-92
2023/12/15 13:02:23;;;;;;;19.13;7.00;;;;;;;;;;5027902;28;20098;-92
2023/12/15 13:04:50;;;;;;;22.10;6.75;;;;;;;;;;5017360;28;20505;-94
2023/12/15 13:07:15;;;;;;;15.70;6.20;;;;;;;;;;5034938;28;20025;-95
2023/12/15 13:09:40;;;;;;;13.90;5.70;;;;;;;;;;5035814;28;20025;-96
2023/12/15 13:12:05;;;;;;;20.27;6.03;;;;;;;;;;5034636;28;20033;-95
2023/12/15 13:14:33;;;;;;;16.83;5.87;;;;;;;;;;5032916;28;20367;-95
2023/12/15 13:16:58;;;;;;;19.88;5.63;;;;;;;;;;5034391;28;20249;-96
2023/12/15 13:19:25;;;;;;;19.30;5.83;;;;;;;;;;5016631;28;20031;-95
2023/12/15 13:21:50;;;;;;;21.50;6.03;;;;;;;;;;5017987;28;20434;-92
2023/12/15 13:24:15;;;;;;;13.97;5.17;;;;;;;;;;5033909;28;20048;-93
2023/12/15 13:26:41;;;;;;;17.73;5.43;;;;;;;;;;5031001;28;20029;-89
2023/12/15 13:29:07;;;;;;;19.35;5.38;;;;;;;;;;5031882;28;20702;-88
2023/12/15 13:31:33;;;;;;;21.87;5.20;;;;;;;;;;5013066;28;20029;-89
2023/12/15 13:33:58;;;;;;;22.38;5.07;;;;;;;;;;5031099;28;20018;-87
2023/12/15 13:36:23;;;;;;;12.87;4.63;;;;;;;;;;5013323;28;20025;-87
2023/12/15 13:38:49;;;;;;;16.60;5.13;;;;;;;;;;5030045;28;20025;-87
2023/12/15 13:41:15;;;;;;;12.10;4.60;;;;;;;;;;5030112;28;20014;-86
2023/12/15 13:43:40;;;;;;;12.50;4.32;;;;;;;;;;5030064;28;20105;-86
2023/12/15 13:46:06;;;;;;;16.70;4.63;;;;;;;;;;5029236;28;20111;-85
2023/12/15 13:48:31;;;;;;;18.23;4.60;;;;;;;;;;5028838;28;20011;-85
2023/12/15 13:50:57;;;;;;;12.50;4.20;;;;;;;;;;5018447;28;20295;-86
2023/12/15 13:53:22;;;;;;;19.00;4.50;;;;;;;;;;5031037;28;20017;-85
2023/12/15 13:55:47;;;;;;;16.63;4.17;;;;;;;;;;5026653;28;20026;-85
2023/12/15 13:58:12;;;;;;;14.60;4.20;;;;;;;;;;5033102;28;20100;-85
2023/12/15 14:00:38;;;;;;;19.13;4.23;;;;;;;;;;5029630;28;20037;-89
2023/12/15 14:03:03;;;;;;;11.47;3.70;;;;;;;;;;5030273;28;20021;-90
2023/12/15 14:05:28;;;;;;;15.83;3.90;;;;;;;;;;5029228;28;20303;-93
2023/12/15 14:07:53;;;;;;;15.53;3.90;;;;;;;;;;5011564;28;20125;-88
2023/12/15 14:10:19;;;;;;;12.60;3.53;;;;;;;;;;5012432;28;20035;-88
2023/12/15 14:12:46;;;;;;;15.07;4.00;;;;;;;;;;5029998;28;20156;-93
2023/12/15 14:15:12;;;;;;;9.82;3.30;;;;;;;;;;5011491;28;20140;-88
2023/12/15 14:17:37;;;;;;;20.97;5.17;;;;;;;;;;5029614;28;20056;-85